Tiempo atmosférico en la estación meteorológica de Calanda, Teruel (459 m.)

Fecha
DESCASC
Temp. máxima en grados centígrados (hora)
DESCASC
Temp. mínima en grados centígrados (hora)
DESCASC
Temp. media en grados centígrados
DESCASC
Racha de viento máxima en m/sg (hora)
DESCASC
Velocidad máxima media en intervalos de 10 minutos(hora)
DESCASC
Precipitaciones diarias en mm
DESCASC
Precipitaciones de 00:00 a 06:00 en mm
DESCASC
Precipitaciones de 06:00 a 12:00 en mm
DESCASC
Precipitaciones de 12:00 a 18:00 en mm
DESCASC
Precipitaciones de 18:00 a 24:00 en mm
DESCASC
17-08-2017 36.2 (18:00) 19.7 (05:50) 28 10.28 (23:59) 5.83 (23:59) 0 0 0 0 0
16-08-2017 32.3 (17:50) 19.9 (08:10) 26.1 8.33 (23:20) 4.17 (23:20) 0 0 0 0 0
15-08-2017 31.6 (14:30) 18.4 (00:00) 25 18.89 (01:30) 9.17 (20:40) 1.4 0 0 0 1.4
14-08-2017 35.6 (16:30) 17.9 (07:30) 26.7 16.94 (23:59) 8.61 (21:00) 0 0 0 0 0
13-08-2017 33.4 (18:10) 15.7 (00:00) 24.6 14.44 (23:59) 6.67 (23:59) 0 0 0 0 0
12-08-2017 29.1 (18:50) 14.1 (00:00) 21.6 10 (10:50) 5.83 (10:50) 0 0 0 0 0
11-08-2017 26.3 (18:40) 13 (00:00) 19.6 12.22 (11:10) 6.67 (11:10) 0 0 0 0 0
10-08-2017 24.2 (16:50) 12.5 (00:00) 18.4 15.83 (04:00) 8.61 (03:40) 0 0 0 0 0
09-08-2017 21.9 (16:20) 15.3 (00:00) 18.6 14.44 (19:10) 7.78 (19:20) 0 0 0 0 0
08-08-2017 29.5 (00:00) 18.4 (00:00) 23.9 15.28 (02:30) 8.89 (02:30) 0 0 0 0 0
07-08-2017 36.1 (15:50) 20.2 (00:00) 28.1 17.22 (23:00) 8.61 (21:40) 0 0 0 0 0
06-08-2017 30.8 (17:30) 18 (00:00) 24.4 8.89 (22:00) 5.28 (21:40) 0 0 0 0 0
05-08-2017 34.1 (18:10) 22.9 (00:00) 28.5 10.56 (21:10) 6.11 (21:10) 0 0 0 0 0
04-08-2017 37 (17:10) 22.2 (00:00) 29.6 8.61 (14:10) 3.89 (01:00) 0 0 0 0 0
03-08-2017 37.4 (17:40) 22.5 (00:00) 30 10.56 (16:00) 5.28 (00:10) 0 0 0 0 0
02-08-2017 34.2 (18:20) 21.9 (00:00) 28.1 16.11 (00:10) 8.89 (00:10) 0 0 0 0 0
01-08-2017 31.4 (19:40) 19.7 (00:00) 25.6 19.17 (00:30) 8.89 (00:20) 0 0 0 0 0
31-07-2017 36.7 (16:20) 18.9 (00:00) 27.8 18.06 (21:40) 9.44 (22:00) 0 0 0 0 0
30-07-2017 38.3 (17:10) 21.6 (00:00) 29.9 14.72 (18:40) 8.33 (21:00) 0 0 0 0 0
29-07-2017 36.2 (18:20) 20.9 (00:00) 28.6 10 (18:20) 5.83 (18:20) 0 0 0 0 0
28-07-2017 34.6 (18:00) 19.9 (00:00) 27.2 10.28 (00:10) 4.44 (00:10) 0 0 0 0 0
27-07-2017 36 (18:10) 20 (00:00) 28 11.67 (22:00) 5.56 (22:00) 0 0 0 0 0
26-07-2017 31.1 (18:00) 15 (00:00) 23.1 11.39 (01:30) 5.83 (10:50) 0 0 0 0 0
25-07-2017 26.1 (16:20) 16.2 (00:00) 21.2 13.33 (04:50) 7.22 (17:40) 0 0 0 0 0
24-07-2017 28.2 (16:10) 17.9 (00:00) 23.1 15.83 (19:20) 8.89 (19:30) 0 0 0 0 0
23-07-2017 28.1 (14:30) 17.3 (00:00) 22.7 16.94 (16:00) 7.5 (16:00) 23.6 0 0 23.6 0
22-07-2017 32.3 (15:00) 18.8 (00:00) 25.5 8.61 (22:30) 4.17 (19:00) 3.2 0 0 3.2 0

Gráficas

Temp. máximas Temp. mínimas Temp. medias Precipitaciones Rachas de viento máximas Velocidades máximas media en intervalos de 10 minutos

Datos horarios

Fecha y hora oficial Temperatura (ºC) Velocidad del viento (km/h) Dirección del viento Racha (km/h) Dirección de racha Precipitación (mm) Presión (hPa) Tendencia (hPa) Humedad (%)
2017-08-20 23:00:00 22.8 8 Sudoeste 14 Oeste 0 967.3 1.3 20
2017-08-20 22:00:00 24.5 6 Sudoeste 11 Sudoeste 0 966.9 0.6 19
2017-08-20 21:00:00 27 3 Norte 12 Noroeste 0 966.3 -0.3 17
2017-08-20 20:00:00 29.3 6 Norte 18 Norte 0 966 -0.9 13
2017-08-20 19:00:00 29.6 7 Norte 23 Norte 0 966.3 -1.1 13
2017-08-20 18:00:00 29.8 8 Norte 26 Norte 0 966.6 -1.4 13
2017-08-20 17:00:00 29.5 9 Norte 26 Norte 0 966.9 -1.4 15
2017-08-20 16:00:00 28.8 10 Nordeste 26 Norte 0 967.4 -1.5 17
2017-08-20 15:00:00 28.1 11 Norte 29 Norte 0 968 -1.6 16
2017-08-20 14:00:00 27.9 13 Norte 24 Nordeste 0 968.3 -1.4 13
2017-08-20 13:00:00 26.4 5 Norte 15 Norte 0 968.9 -0.7 18
2017-08-20 12:00:00 24.9 4 Este 19 Noroeste 0 969.6 0.1 22
2017-08-20 11:00:00 22.6 8 Noroeste 14 Noroeste 0 969.7 0.8 24
2017-08-20 10:00:00 20 3 Este 11 Norte 0 969.6 1 34
2017-08-20 09:00:00 19 8 Norte 13 Norte 0 969.5 1 37
2017-08-20 08:00:00 18.2 5 Oeste 14 Sudoeste 0 968.9 0.8 42
2017-08-20 07:00:00 17.1 7 Noroeste 12 Oeste 0 968.6 0.6 45
2017-08-20 06:00:00 17.9 4 Oeste 12 Oeste 0 968.5 0.8 46
2017-08-20 05:00:00 18.5 5 Sudoeste 9 Noroeste 0 968.1 0.1 45
2017-08-20 04:00:00 19.6 7 Noroeste 16 Oeste 0 968 0.1 42
2017-08-20 03:00:00 20.4 9 Oeste 21 Sudoeste 0 967.7 0.2 43
2017-08-20 02:00:00 21.1 7 Sudoeste 13 Oeste 0 968 1 40
2017-08-20 01:00:00 22.5 4 Oeste 21 Noroeste 0 967.9 1.9 36
2017-08-20 00:00:00 23.8 14 Noroeste 32 Noroeste 0 967.5 2.2 33
2017-08-19 23:00:00 24.8 9 Noroeste 19 Noroeste 0 967 2 28
2017-08-19 22:00:00 25.8 5 Oeste 11 Norte 0 966 1.1 28
2017-08-19 21:00:00 28 8 Norte 18 Noroeste 0 965.3 0.2 25
2017-08-19 20:00:00 29.4 10 Noroeste 19 Norte 0 965 -0.3 24
2017-08-19 19:00:00 30 10 Norte 22 Norte 0 964.9 -0.9 25
2017-08-19 18:00:00 30.4 9 Norte 22 Norte 0 965.1 -1.2 25
2017-08-19 17:00:00 29.7 9 Norte 21 Norte 0 965.3 -1.5 26
2017-08-19 16:00:00 29.4 10 Norte 26 Norte 0 965.8 -1.4 27
2017-08-19 15:00:00 28.6 9 Norte 32 Norte 0 966.3 -1.4 30
2017-08-19 14:00:00 27.5 7 Nordeste 21 Nordeste 0 966.8 -0.8 33
2017-08-19 13:00:00 26.2 5 Norte 21 Noroeste 0 967.2 -0.3 35
2017-08-19 12:00:00 24.8 12 Noroeste 23 Noroeste 0 967.7 0.4 39
2017-08-19 11:00:00 23.7 8 Noroeste 21 Noroeste 0 967.6 0.7 43
2017-08-19 10:00:00 22.4 8 Oeste 20 Oeste 0 967.5 0.9 47
2017-08-19 09:00:00 20.5 9 Sudoeste 20 Sudoeste 0 967.3 1.1 53
2017-08-19 08:00:00 18 5 Oeste 10 Oeste 0 966.9 1.1 61
2017-08-19 07:00:00 18.5 5 Oeste 14 Oeste 0 966.6 1.1 59
2017-08-19 06:00:00 19.3 5 Noroeste 13 Oeste 0 966.2 0.5 54
2017-08-19 05:00:00 20.2 6 Oeste 22 Sudoeste 0 965.8 -0.3 51
2017-08-19 04:00:00 21.1 9 Oeste 28 Sudoeste 0 965.5 -0.3 49
2017-08-19 03:00:00 21.6 15 Sudoeste 31 Sudoeste 0 965.7 0 50
2017-08-19 02:00:00 22.2 10 Oeste 22 Oeste 0 966.1 0.6 53
2017-08-19 01:00:00 23.1 8 Oeste 20 Oeste 0 965.8 0.9 51
2017-08-19 00:00:00 23.9 8 Oeste 23 Oeste 0 965.7 2.1 48
2017-08-18 23:00:00 24.7 13 Oeste 37 Noroeste 0 965.5 2.9 44
2017-08-18 22:00:00 25.9 17 Noroeste 42 Noroeste 0 964.9 2.8 40
2017-08-18 21:00:00 27.1 28 Noroeste 51 Oeste 0 963.6 1.7 36
2017-08-18 20:00:00 30.3 26 Noroeste 46 Noroeste 0 962.6 0.9 34
2017-08-18 19:00:00 33.3 18 Noroeste 32 Norte 0 962.1 0.7 27
2017-08-18 18:00:00 34 19 Noroeste 38 Noroeste 0 961.9 0.3 25
2017-08-18 17:00:00 34.2 21 Noroeste 48 Noroeste 0 961.7 -0.7 27
2017-08-18 16:00:00 35.4 18 Norte 35 Norte 0 961.4 -1.6 26
2017-08-18 15:00:00 34.9 12 Norte 27 Noroeste 0 961.6 -2.3 25
2017-08-18 14:00:00 33 6 Nordeste 18 Nordeste 0 962.4 -1.9 32
2017-08-18 13:00:00 30.8 7 Norte 16 Norte 0 963 -1 39
2017-08-18 12:00:00 28.5 8 Norte 17 Norte 0 963.9 0.1 48
2017-08-18 11:00:00 27.6 5 Norte 10 Noroeste 0 964.3 1 50
2017-08-18 10:00:00 25.3 3 Este 8 Nordeste 0 964 0.5 58
2017-08-18 09:00:00 22.4 3 Nordeste 10 Norte 0 963.8 0.5 70
2017-08-18 08:00:00 21.5 0 Calma 5 Sudoeste 0 963.3 -0.1 66
2017-08-18 07:00:00 22.3 4 Norte 10 Oeste 0 963.5 -0.1 62
2017-08-18 06:00:00 24.3 2 Este 17 Sudoeste 0 963.3 0.1 49
2017-08-18 05:00:00 25.6 4 Sudoeste 20 Sudoeste 0 963.4 -0.3 42
2017-08-18 04:00:00 26 9 Sudoeste 36 Sur 0 963.6 0 41
2017-08-18 03:00:00 26.6 21 Sur 48 Sur 0 963.2 -0.6 39
2017-08-18 02:00:00 26.8 21 Sur 58 Sudeste 0 963.7 -0.3 42
2017-08-18 01:00:00 27.3 25 Sur 52 Sur 0 963.6 -0.2 42
2017-08-18 00:00:00 27.5 21 Sur 37 Sur 0 963.8 0.4 44
2017-08-17 23:00:00 28.1 15 Sur 32 Sur 0 964 0.9 43
2017-08-17 22:00:00 29.2 10 Sudeste 31 Sudeste 0 963.8 0.7 39
2017-08-17 21:00:00 30.7 17 Sur 36 Sur 0 963.4 0.1 34
2017-08-17 20:00:00 33.1 16 Sudeste 35 Sudeste 0 963.1 -0.8 28
2017-08-17 19:00:00 35.6 11 Norte 27 Norte 0 963.1 -1.5 15
2017-08-17 18:00:00 35.9 10 Norte 25 Nordeste 0 963.3 -2 14
2017-08-17 17:00:00 35.7 7 Nordeste 22 Nordeste 0 963.9 -2.2 15
2017-08-17 16:00:00 34.7 6 Norte 20 Nordeste 0 964.6 -2.1 15
2017-08-17 15:00:00 33.1 10 Norte 18 Norte 0 965.3 -1.9 17
2017-08-17 14:00:00 32 8 Norte 14 Norte 0 966.1 -1.5 16
2017-08-17 13:00:00 30.6 5 Norte 14 Nordeste 0 966.7 -0.8 14
2017-08-17 12:00:00 28.8 6 Noroeste 11 Noroeste 0 967.2 -0.2 17
2017-08-17 11:00:00 26.5 4 Nordeste 11 Este 0 967.6 0.4 23
2017-08-17 10:00:00 24.6 0 Calma 10 Sudoeste 0 967.5 0.5 26
2017-08-17 09:00:00 21.7 5 Sudoeste 14 Sudoeste 0 967.4 0.5 35
2017-08-17 08:00:00 20.3 10 Sudoeste 22 Sudoeste 0 967.2 0.2 37
2017-08-17 07:00:00 20.3 9 Sudoeste 21 Sudoeste 0 967 0.2 39
2017-08-17 06:00:00 19.9 8 Sudoeste 16 Sudoeste 0 966.9 0.1 42
2017-08-17 05:00:00 20.6 5 Oeste 16 Sudoeste 0 967 0.1 41
2017-08-17 04:00:00 22.2 7 Sudoeste 19 Sudoeste 0 966.8 -0.2 42
2017-08-17 03:00:00 23.4 11 Sudoeste 21 Sudoeste 0 966.8 0.2 37
2017-08-17 02:00:00 24.1 9 Sudoeste 16 Sudoeste 0 966.9 0.8 42
2017-08-17 01:00:00 25.1 6 Sudoeste 19 Oeste 0 967 1.4 36
2017-08-17 00:00:00 26.2 9 Oeste 30 Noroeste 0 966.6 1.6 38
2017-08-16 23:00:00 26.4 9 Oeste 14 Oeste 0 966.1 1.3 38
2017-08-16 22:00:00 27.1 8 Oeste 12 Oeste 0 965.6 1 37
2017-08-16 21:00:00 29.7 3 Noroeste 14 Norte 0 965 0.6 30
2017-08-16 20:00:00 31.4 8 Norte 18 Norte 0 964.8 -0.1 24
2017-08-16 19:00:00 32 12 Norte 20 Norte 0 964.6 -0.7 27
2017-08-16 18:00:00 32.2 7 Nordeste 18 Norte 0 964.4 -1.2 28
2017-08-16 17:00:00 31.1 7 Nordeste 22 Norte 0 964.9 -1.5 31
2017-08-16 16:00:00 30.4 9 Nordeste 21 Norte 0 965.3 -1.5 37
2017-08-16 15:00:00 29.1 7 Norte 19 Norte 0 965.6 -1.5 41
2017-08-16 14:00:00 28 10 Norte 19 Noroeste 0 966.4 -0.6 44
2017-08-16 13:00:00 26.8 7 Noroeste 17 Norte 0 966.8 -0.2 48
2017-08-16 12:00:00 25.3 5 Norte 17 Norte 0 967.1 0.1 59
2017-08-16 11:00:00 24.1 3 Este 10 Este 0 967 0.6 64
2017-08-16 10:00:00 22.6 5 Este 11 Sudeste 0 967 1 73
2017-08-16 09:00:00 20.8 3 Sudeste 7 Este 0 967 1.1 79
2017-08-16 08:00:00 20 2 Norte 7 Norte 0 966.4 0.7 82
2017-08-16 07:00:00 20.8 2 Sudoeste 5 Sudoeste 0 966 0.5 84
2017-08-16 06:00:00 21 2 Oeste 6 Sudoeste 0 965.9 0.7 85
2017-08-16 05:00:00 20.6 4 Sudoeste 13 Oeste 0 965.7 0.5 87
2017-08-16 04:00:00 20.8 9 Oeste 17 Oeste 0 965.5 0.3 80
2017-08-16 03:00:00 21.4 6 Oeste 13 Oeste 0 965.2 0.3 65
2017-08-16 02:00:00 21.2 8 Oeste 12 Oeste 0 965.2 0.7 66
2017-08-16 01:00:00 21.6 3 Norte 10 Sudeste 0 965.2 2.1 66
2017-08-16 00:00:00 22.6 8 Sudeste 23 Este 0 964.9 2.3 60
2017-08-15 23:00:00 24.7 7 Este 57 Sur 0 964.5 2 50
2017-08-15 22:00:00 25.6 28 Sur 67 Sur 0 963.1 1 45
2017-08-15 21:00:00 25.8 32 Sur 66 Sur 0 962.6 -0.6 48
2017-08-15 20:00:00 25 25 Sur 62 Sur 0 962.5 -0.8 55
2017-08-15 19:00:00 23.5 18 Sudeste 58 Sudeste 1.4 962.1 -0.6 74
2017-08-15 18:00:00 26.1 16 Sur 36 Sur 0 963.2 -0.3 58
2017-08-15 17:00:00 29 4 Sudeste 15 Sudoeste 0 963.3 -0.5 41
2017-08-15 16:00:00 30.1 5 Norte 13 Sur 0 962.7 -1.7 32
2017-08-15 15:00:00 31.1 2 Oeste 15 Norte 0 963.5 -1.3 29
2017-08-15 14:00:00 30.1 7 Norte 19 Norte 0 963.8 -1.1 29
2017-08-15 13:00:00 29.8 8 Norte 18 Norte 0 964.4 -0.2 29
2017-08-15 12:00:00 27.5 7 Norte 17 Nordeste 0 964.8 -0.2 34
2017-08-15 11:00:00 25.1 5 Nordeste 14 Nordeste 0 964.9 0 41
2017-08-15 10:00:00 23 5 Nordeste 14 Este 0 964.6 0.3 48
2017-08-15 09:00:00 20.5 6 Este 10 Este 0 965 1 58
2017-08-15 08:00:00 18.7 2 Noroeste 7 Este 0 964.9 0.9 56
2017-08-15 07:00:00 19 3 Noroeste 9 Sudeste 0 964.3 0.4 50
2017-08-15 06:00:00 19.6 4 Sudeste 10 Sudeste 0 964 0.3 47
2017-08-15 05:00:00 21.6 6 Noroeste 31 Sudeste 0 964 1 40
2017-08-15 04:00:00 24.5 14 Sur 32 Sur 0 963.9 1.2 23
2017-08-15 03:00:00 25 14 Noroeste 43 Sur 0 963.7 1.2 21
2017-08-15 02:00:00 25.7 23 Sur 68 Sudeste 0 963 0.4 21
2017-08-15 01:00:00 25.6 30 Sur 60 Sur 0 962.7 0.6 25
2017-08-15 00:00:00 26.3 30 Sur 61 Sudeste 0 962.5 1 24
2017-08-14 23:00:00 26.3 26 Sur 55 Sur 0 962.6 1.2 31
2017-08-14 22:00:00 26.9 27 Sur 57 Sur 0 962.1 0.6 29
2017-08-14 21:00:00 27.7 31 Sur 60 Sudeste 0 961.5 -0.2 27
2017-08-14 20:00:00 29.6 30 Sudeste 59 Sudeste 0 961.4 -0.4 23
2017-08-14 19:00:00 31.1 30 Sudeste 51 Sur 0 961.5 -0.4 22
2017-08-14 18:00:00 33 19 Sudeste 41 Sudeste 0 961.7 -0.8 21
2017-08-14 17:00:00 34.4 19 Sur 38 Sudeste 0 961.8 -1.5 20
2017-08-14 16:00:00 34.7 10 Noroeste 23 Norte 0 961.9 -2.1 20
2017-08-14 15:00:00 33.6 9 Norte 21 Norte 0 962.5 -1.8 20
2017-08-14 14:00:00 32 9 Nordeste 20 Norte 0 963.3 -0.9 23
2017-08-14 13:00:00 30.1 6 Nordeste 19 Nordeste 0 964 -0.2 24
2017-08-14 12:00:00 28.4 7 Norte 15 Nordeste 0 964.3 0.1 30
2017-08-14 11:00:00 26.5 5 Nordeste 9 Norte 0 964.2 0.3 33
2017-08-14 10:00:00 23.1 3 Nordeste 10 Este 0 964.2 0.7 41
2017-08-14 09:00:00 19.6 3 Nordeste 8 Nordeste 0 964.2 0.9 54
2017-08-14 08:00:00 18 3 Oeste 11 Norte 0 963.9 0.7 53
2017-08-14 07:00:00 18.3 3 Noroeste 8 Noroeste 0 963.5 0 54
2017-08-14 06:00:00 20.9 3 Sudoeste 24 Sudeste 0 963.3 -0.2 45
2017-08-14 05:00:00 22.2 9 Sur 17 Sur 0 963.2 -0.2 42
2017-08-14 04:00:00 22.4 0 Calma 20 Sudeste 0 963.5 0.6 43
2017-08-14 03:00:00 23 8 Este 24 Este 0 963.5 0.5 41
2017-08-14 02:00:00 24.1 5 Norte 49 Sur 0 963.4 0.4 39
2017-08-14 01:00:00 24.8 20 Sur 55 Sudeste 0 962.9 -0.3 39
2017-08-14 00:00:00 25 24 Sur 52 Sur 0 963 0.4 42
2017-08-13 23:00:00 25.5 22 Sur 42 Sur 0 963 0.6 42
2017-08-13 22:00:00 26.1 11 Sur 32 Sudeste 0 963.2 1.1 44
2017-08-13 21:00:00 26.9 20 Sudeste 40 Sudeste 0 962.6 0.3 43
2017-08-13 20:00:00 28.8 19 Sudeste 40 Sudeste 0 962.4 -0.5 36
2017-08-13 19:00:00 31.4 19 Sudeste 35 Sur 0 962.1 -1.4 30
2017-08-13 18:00:00 33.3 8 Nordeste 23 Este 0 962.3 -1.9 24
2017-08-13 17:00:00 32.6 10 Nordeste 25 Nordeste 0 962.9 -2.3 19
2017-08-13 16:00:00 32.2 10 Nordeste 27 Norte 0 963.5 -2.5 20
2017-08-13 15:00:00 30.1 9 Nordeste 22 Norte 0 964.2 -2.3 22
2017-08-13 14:00:00 28.4 6 Norte 22 Norte 0 965.2 -1.5 25
2017-08-13 13:00:00 26.9 6 Nordeste 21 Nordeste 0 966 -0.5 27
2017-08-13 12:00:00 26.1 6 Nordeste 19 Noroeste 0 966.5 0 29
2017-08-13 11:00:00 25.1 3 Oeste 10 Sur 0 966.7 0.6 30
2017-08-13 10:00:00 22.8 5 Sur 13 Sur 0 966.5 0.4 34
2017-08-13 09:00:00 19.4 8 Sur 18 Sudoeste 0 966.5 0.6 43
2017-08-13 08:00:00 17.1 11 Sudoeste 18 Sudoeste 0 966.1 0 40
2017-08-13 07:00:00 16.9 10 Sudoeste 18 Sur 0 966.1 -0.2 41
2017-08-13 06:00:00 15.8 3 Sudoeste 9 Sudoeste 0 965.9 -0.5 45
2017-08-13 05:00:00 17.3 6 Oeste 9 Oeste 0 966.1 -0.2 46
2017-08-13 04:00:00 19.5 7 Oeste 17 Sudoeste 0 966.3 -0.2 41
2017-08-13 03:00:00 20.2 4 Oeste 21 Oeste 0 966.4 -0.1 30
2017-08-13 02:00:00 20.6 12 Sudoeste 18 Sudoeste 0 966.3 -0.2 35
2017-08-13 01:00:00 20.8 8 Sudoeste 16 Sudoeste 0 966.5 0.4 25
2017-08-13 00:00:00 22 8 Sudoeste 15 Sudoeste 0 966.5 0.7 25
2017-08-12 23:00:00 20.9 4 Sudoeste 10 Sudoeste 0 966.5 0.8 26
2017-08-12 22:00:00 23.2 2 Sudoeste 6 Nordeste 0 966.1 0.3 22
2017-08-12 21:00:00 26.7 2 Nordeste 14 Noroeste 0 965.8 -0.3 17
2017-08-12 20:00:00 28.9 7 Noroeste 14 Noroeste 0 965.7 -0.9 14
2017-08-12 19:00:00 28.2 7 Norte 22 Noroeste 0 965.8 -1.4 17
2017-08-12 18:00:00 28.5 7 Norte 22 Noroeste 0 966.1 -1.7 18
2017-08-12 17:00:00 28.3 10 Norte 31 Noroeste 0 966.6 -1.9 17
2017-08-12 16:00:00 27.7 9 Norte 27 Noroeste 0 967.2 -1.8 15
2017-08-12 15:00:00 26.6 12 Norte 23 Norte 0 967.8 -1.6 17
2017-08-12 14:00:00 25.3 11 Norte 27 Noroeste 0 968.5 -0.9 18
2017-08-12 13:00:00 23.9 13 Norte 31 Noroeste 0 969 -0.4 20
2017-08-12 12:00:00 23 13 Noroeste 31 Noroeste 0 969.4 0.2 21
2017-08-12 11:00:00 21.9 18 Noroeste 36 Noroeste 0 969.4 0.4 18
2017-08-12 10:00:00 20.2 20 Noroeste 30 Noroeste 0 969.4 0.6 26
2017-08-12 09:00:00 17.8 11 Oeste 17 Oeste 0 969.2 0.9 37
2017-08-12 08:00:00 15.3 7 Oeste 18 Sudoeste 0 969 0.6 43
2017-08-12 07:00:00 14.1 5 Sudoeste 14 Oeste 0 968.8 0.4 45
2017-08-12 06:00:00 14.7 6 Sudoeste 15 Sudoeste 0 968.3 0 43
2017-08-12 05:00:00 15.7 6 Sudoeste 21 Oeste 0 968.4 -0.1 42
2017-08-12 04:00:00 17 12 Oeste 23 Oeste 0 968.4 -0.1 40
2017-08-12 03:00:00 17.3 12 Sudoeste 27 Sudoeste 0 968.3 -0.3 40
2017-08-12 02:00:00 17.8 13 Sudoeste 29 Sudoeste 0 968.5 -0.1 38
2017-08-12 01:00:00 17.5 10 Sudoeste 18 Sudoeste 0 968.5 0.3 43
2017-08-12 00:00:00 17.7 3 Oeste 13 Noroeste 0 968.6 1.3 40
2017-08-11 23:00:00 18.5 8 Oeste 14 Oeste 0 968.6 1.6 36
2017-08-11 22:00:00 21 8 Oeste 21 Noroeste 0 968.2 1.5 30
2017-08-11 21:00:00 23 13 Noroeste 34 Noroeste 0 967.3 0.3 24
2017-08-11 20:00:00 25.2 17 Noroeste 36 Noroeste 0 967 -0.3 20
2017-08-11 19:00:00 26.1 18 Noroeste 41 Noroeste 0 966.7 -1 18
2017-08-11 18:00:00 26 19 Noroeste 39 Noroeste 0 967 -1 14
2017-08-11 17:00:00 25.6 20 Noroeste 40 Noroeste 0 967.3 -1.1 18
2017-08-11 16:00:00 25.4 14 Noroeste 38 Noroeste 0 967.7 -1.2 20
2017-08-11 15:00:00 24.2 17 Noroeste 34 Noroeste 0 968 -1.4 22
2017-08-11 14:00:00 23 14 Noroeste 35 Noroeste 0 968.4 -1.2 26
2017-08-11 13:00:00 21.6 18 Noroeste 37 Oeste 0 968.9 -1 29
2017-08-11 12:00:00 20.5 18 Noroeste 44 Noroeste 0 969.4 -0.5 32
2017-08-11 11:00:00 17.8 21 Noroeste 41 Noroeste 0 969.6 -0.2 41
2017-08-11 10:00:00 17.2 21 Noroeste 41 Noroeste 0 969.9 0.4 43
2017-08-11 09:00:00 15.5 13 Oeste 31 Sudoeste 0 969.9 0.1 49
2017-08-11 08:00:00 13.5 13 Sudoeste 29 Oeste 0 969.8 -0.2 53
2017-08-11 07:00:00 13.2 14 Oeste 30 Oeste 0 969.5 -0.5 53
2017-08-11 06:00:00 13.7 11 Oeste 26 Oeste 0 969.8 -0.2 49
2017-08-11 05:00:00 14 9 Sudoeste 31 Sudoeste 0 970 -0.5 51
2017-08-11 04:00:00 14.2 8 Oeste 34 Oeste 0 970 -0.8 53
2017-08-11 03:00:00 14.7 14 Sudoeste 31 Oeste 0 970 -0.8 55
2017-08-11 02:00:00 15.2 13 Oeste 30 Sudoeste 0 970.5 0 53
2017-08-11 01:00:00 16 17 Oeste 35 Oeste 0 970.8 1 52
2017-08-11 00:00:00 16.7 18 Oeste 34 Oeste 0 970.8 1.9 51
2017-08-10 23:00:00 17.4 12 Noroeste 32 Noroeste 0 970.5 2 54
2017-08-10 22:00:00 18.5 18 Noroeste 43 Noroeste 0 969.8 1.6 50
2017-08-10 21:00:00 20 20 Noroeste 39 Noroeste 0 968.9 0.5 43
2017-08-10 20:00:00 21.9 27 Noroeste 52 Noroeste 0 968.5 0.1 35
2017-08-10 19:00:00 23.2 26 Noroeste 48 Noroeste 0 968.2 -0.5 31
2017-08-10 18:00:00 23.4 24 Noroeste 48 Noroeste 0 968.4 -0.7 31
2017-08-10 17:00:00 23.5 25 Noroeste 53 Noroeste 0 968.4 -0.7 32
2017-08-10 16:00:00 23.7 26 Noroeste 49 Noroeste 0 968.7 -0.8 30
2017-08-10 15:00:00 23.3 25 Noroeste 47 Noroeste 0 969.1 -0.7 31
2017-08-10 14:00:00 22.3 26 Noroeste 46 Noroeste 0 969.1 -1 32
2017-08-10 13:00:00 21.1 26 Noroeste 48 Noroeste 0 969.5 -0.5 36
2017-08-10 12:00:00 20 25 Noroeste 46 Oeste 0 969.8 -0.2 35
2017-08-10 11:00:00 18 21 Noroeste 40 Noroeste 0 970.1 0.7 47
2017-08-10 10:00:00 17.3 18 Oeste 45 Oeste 0 970 1.1 49
2017-08-10 09:00:00 15.7 18 Oeste 36 Oeste 0 970 1.3 55
2017-08-10 08:00:00 12.5 7 Sudoeste 24 Oeste 0 969.4 0.9 65
2017-08-10 07:00:00 12.7 12 Oeste 23 Oeste 0 968.9 0.8 63
2017-08-10 06:00:00 13 9 Sudoeste 32 Oeste 0 968.7 0 62
2017-08-10 05:00:00 13.9 18 Oeste 47 Oeste 0 968.5 -0.6 60
2017-08-10 04:00:00 14.3 26 Oeste 57 Noroeste 0 968.1 -0.7 56
2017-08-10 03:00:00 15 24 Oeste 45 Oeste 0 968.7 0.1 51
2017-08-10 02:00:00 15.8 18 Oeste 42 Oeste 0 969.1 0.8 48
2017-08-10 01:00:00 15.9 21 Oeste 44 Oeste 0 968.8 1.7 48
2017-08-10 00:00:00 16 14 Oeste 37 Noroeste 0 968.6 2.2 52
2017-08-09 23:00:00 17.4 20 Noroeste 40 Oeste 0 968.3 2.3 46
2017-08-09 22:00:00 17.8 17 Noroeste 33 Noroeste 0 967.1 1.8 43
2017-08-09 21:00:00 17.6 14 Noroeste 42 Noroeste 0 966.4 1.6 45
2017-08-09 20:00:00 17.7 21 Noroeste 52 Noroeste 0 966 1.5 48
2017-08-09 19:00:00 19.3 23 Noroeste 44 Noroeste 0 965.3 1.1 42
2017-08-09 18:00:00 20.7 19 Noroeste 36 Noroeste 0 964.8 0.7 39
2017-08-09 17:00:00 21.4 16 Noroeste 34 Norte 0 964.5 0.2 37
2017-08-09 16:00:00 21.5 15 Noroeste 25 Noroeste 0 964.2 -0.5 36
2017-08-09 15:00:00 20.9 8 Sudeste 21 Este 0 964.1 -0.4 43
2017-08-09 14:00:00 20.2 5 Nordeste 24 Noroeste 0 964.3 -0.3 43
2017-08-09 13:00:00 19.6 10 Noroeste 24 Noroeste 0 964.7 0.3 43
2017-08-09 12:00:00 19.3 6 Norte 12 Nordeste 0 964.5 0.2 43
2017-08-09 11:00:00 18.7 5 Norte 13 Norte 0 964.6 0.5 45
2017-08-09 10:00:00 18.2 4 Norte 15 Sudoeste 0 964.4 0.6 46
2017-08-09 09:00:00 17.2 6 Oeste 15 Sudoeste 0 964.3 0.4 49
2017-08-09 08:00:00 16.1 6 Sudoeste 17 Sudoeste 0 964.1 -0.1 53
2017-08-09 07:00:00 15.4 10 Sudoeste 16 Sudoeste 0 963.8 -0.5 56
2017-08-09 06:00:00 15.6 9 Sudoeste 16 Sudoeste 0 963.9 -0.9 55
2017-08-09 05:00:00 16.3 10 Sudoeste 19 Sudoeste 0 964.2 -0.9 54
2017-08-09 04:00:00 16.2 7 Sudoeste 14 Sudoeste 0 964.3 -0.8 54
2017-08-09 03:00:00 17.4 10 Sudoeste 19 Sudoeste 0 964.8 -0.2 50
2017-08-09 02:00:00 17.7 9 Sudoeste 14 Sudoeste 0 965.1 0.3 48
2017-08-09 01:00:00 17.9 6 Oeste 11 Oeste 0 965.1 1.2 47
2017-08-09 00:00:00 18.8 4 Sur 21 Noroeste 0 965 2 42
2017-08-08 23:00:00 20.1 10 Noroeste 26 Noroeste 0 964.8 2.3 38
2017-08-08 22:00:00 21.5 11 Noroeste 26 Noroeste 0 963.9 1.6 33
2017-08-08 21:00:00 23.2 15 Noroeste 34 Noroeste 0 963 1.1 28
2017-08-08 20:00:00 25 20 Noroeste 42 Noroeste 0 962.5 0.7 24
2017-08-08 19:00:00 25.9 23 Noroeste 53 Noroeste 0 962.3 0.5 22
2017-08-08 18:00:00 26.7 28 Noroeste 49 Noroeste 0 961.9 -0.1 24
2017-08-08 17:00:00 27.1 25 Noroeste 54 Noroeste 0 961.8 -0.5 23
2017-08-08 16:00:00 26.8 22 Noroeste 45 Noroeste 0 961.8 -0.8 24
2017-08-08 15:00:00 26.4 23 Noroeste 45 Noroeste 0 962 -0.4 24
2017-08-08 14:00:00 25.6 20 Noroeste 41 Noroeste 0 962.3 0.2 26
2017-08-08 13:00:00 24.9 23 Noroeste 49 Noroeste 0 962.6 0.8 31
2017-08-08 12:00:00 23.7 22 Noroeste 44 Noroeste 0 962.4 1.2 36
2017-08-08 11:00:00 22.4 23 Noroeste 40 Noroeste 0 962.1 1.4 44
2017-08-08 10:00:00 20.9 20 Noroeste 43 Oeste 0 961.8 1.4 51
2017-08-08 09:00:00 19.4 18 Oeste 42 Sudoeste 0 961.2 1.1 58
2017-08-08 08:00:00 18.4 18 Oeste 33 Sudoeste 0 960.7 0.8 65
2017-08-08 07:00:00 18.9 14 Oeste 25 Oeste 0 960.4 1.5 65
2017-08-08 06:00:00 19.9 12 Oeste 37 Oeste 0 960.1 2.4 62
2017-08-08 05:00:00 21 17 Oeste 39 Noroeste 0 959.9 3.8 61
2017-08-08 04:00:00 21.9 18 Noroeste 35 Noroeste 0 958.9 2.6 62
2017-08-08 03:00:00 23 18 Noroeste 55 Noroeste 0 957.7 1.3 61
2017-08-08 02:00:00 27.5 5 Oeste 12 Sudoeste 0 956.1 -0.4 37
2017-08-08 01:00:00 28.3 8 Oeste 36 Sudoeste 0 956.3 0 45
2017-08-08 00:00:00 29.5 13 Sur 61 Sudeste 0 956.4 0.4 43
2017-08-07 23:00:00 28.6 31 Sur 62 Sur 0 956.5 0.4 50
2017-08-07 22:00:00 28.5 22 Sur 58 Sur 0 956.3 0.2 52
2017-08-07 21:00:00 29.8 27 Sur 53 Sudeste 0 956 -0.6 47
2017-08-07 20:00:00 31.3 25 Sudeste 48 Sudeste 0 956.1 -0.9 43
2017-08-07 19:00:00 32.3 28 Sudeste 54 Sudeste 0 956.1 -1.3 40
2017-08-07 18:00:00 33.1 24 Sudeste 51 Sudeste 0 956.6 -2.2 39
2017-08-07 17:00:00 35 19 Sudeste 34 Sudeste 0 957 -2.9 33
2017-08-07 16:00:00 35.6 14 Sur 28 Nordeste 0 957.4 -3.5 29
2017-08-07 15:00:00 34.4 12 Norte 36 Este 0 958.8 -2.7 29
2017-08-07 14:00:00 32.7 11 Norte 25 Norte 0 959.9 -2 34
2017-08-07 13:00:00 31.1 7 Nordeste 19 Nordeste 0 960.9 -1.2 37
2017-08-07 12:00:00 29.3 6 Nordeste 16 Este 0 961.5 -1.1 42
2017-08-07 11:00:00 26.5 4 Nordeste 12 Norte 0 961.9 -0.5 49
2017-08-07 10:00:00 23.8 4 Nordeste 9 Nordeste 0 962.1 -0.3 53
2017-08-07 09:00:00 21.3 3 Nordeste 10 Este 0 962.6 0.3 62
2017-08-07 08:00:00 20.3 3 Este 8 Este 0 962.4 -0.2 79
2017-08-07 07:00:00 20.6 2 Sudeste 9 Oeste 0 962.4 -0.4 75
2017-08-07 06:00:00 21.2 4 Sudoeste 14 Oeste 0 962.3 -0.7 78
2017-08-07 05:00:00 22.2 7 Oeste 12 Oeste 0 962.6 -0.5 61
2017-08-07 04:00:00 23.2 5 Oeste 22 Sur 0 962.8 -0.4 68
2017-08-07 03:00:00 23.9 7 Sur 22 Sur 0 963 -0.2 65
2017-08-07 02:00:00 24.3 9 Sur 26 Sur 0 963.1 -0.3 64
2017-08-07 01:00:00 24.9 9 Sur 26 Sudeste 0 963.2 0.4 61
2017-08-07 00:00:00 25.5 9 Sur 30 Sudeste 0 963.2 0.7 60
2017-08-06 23:00:00 25.7 10 Sudeste 28 Sudeste 0 963.4 0.9 58
2017-08-06 22:00:00 26.2 14 Sudeste 32 Sudeste 0 962.8 0 56
2017-08-06 21:00:00 27.8 12 Sudeste 24 Sudeste 0 962.5 -0.7 50
2017-08-06 20:00:00 29.6 11 Norte 21 Norte 0 962.5 -1.1 33
2017-08-06 19:00:00 30.2 12 Norte 26 Norte 0 962.8 -1.5 31
2017-08-06 18:00:00 30.2 14 Norte 31 Norte 0 963.2 -1.8 31
2017-08-06 17:00:00 30.1 12 Norte 28 Norte 0 963.6 -2.1 32
2017-08-06 16:00:00 29.4 5 Nordeste 23 Norte 0 964.3 -2.1 33
2017-08-06 15:00:00 27.9 7 Norte 21 Nordeste 0 965 -2 35
2017-08-06 14:00:00 27 8 Noroeste 18 Nordeste 0 965.7 -1.3 36
2017-08-06 13:00:00 25 5 Nordeste 14 Noroeste 0 966.4 -0.6 40
2017-08-06 12:00:00 23.6 6 Norte 16 Norte 0 967 0.2 44
2017-08-06 11:00:00 21.9 5 Oeste 20 Oeste 0 967 0.7 50
2017-08-06 10:00:00 20.9 9 Oeste 23 Oeste 0 967 1.5 54
2017-08-06 09:00:00 19.5 12 Oeste 20 Sudoeste 0 966.8 1.8 60
2017-08-06 08:00:00 18.1 8 Oeste 15 Oeste 0 966.3 1.5 65
2017-08-06 07:00:00 18.3 7 Oeste 14 Oeste 0 965.5 1 64
2017-08-06 06:00:00 18.7 8 Oeste 17 Oeste 0 965 0.5 62
2017-08-06 05:00:00 19.3 9 Oeste 21 Noroeste 0 964.8 0.5 60
2017-08-06 04:00:00 19.9 6 Oeste 13 Noroeste 0 964.5 0 59
2017-08-06 03:00:00 20.8 8 Oeste 17 Oeste 0 964.5 0.1 57
2017-08-06 02:00:00 21.7 8 Oeste 21 Oeste 0 964.3 0.7 55
2017-08-06 01:00:00 22.9 7 Oeste 25 Noroeste 0 964.5 1.8 52
2017-08-06 00:00:00 23.5 14 Noroeste 25 Noroeste 0 964.4 2.9 51
2017-08-05 23:00:00 25 7 Norte 27 Noroeste 0 963.6 2.8 47
2017-08-05 22:00:00 27.1 13 Noroeste 38 Norte 0 962.7 2.2 42
2017-08-05 21:00:00 31 21 Noroeste 35 Norte 0 961.5 0.6 34
2017-08-05 20:00:00 33.4 8 Oeste 25 Sudoeste 0 960.8 -0.6 24
2017-08-05 19:00:00 33.5 3 Norte 15 Norte 0 960.5 -1 32
2017-08-05 18:00:00 33.3 5 Nordeste 16 Nordeste 0 960.9 -0.9 32
2017-08-05 17:00:00 33.4 7 Norte 23 Noroeste 0 961.4 -1.1 30
2017-08-05 16:00:00 33.5 13 Norte 27 Norte 0 961.5 -1.5 30
2017-08-05 15:00:00 33.3 15 Norte 33 Norte 0 961.8 -1.5 31
2017-08-05 14:00:00 32.9 13 Norte 28 Norte 0 962.5 -0.8 32
2017-08-05 13:00:00 31.4 15 Norte 25 Noroeste 0 963 -0.3 35
2017-08-05 12:00:00 30.3 8 Norte 16 Norte 0 963.3 0.2 38
2017-08-05 11:00:00 29.1 7 Norte 14 Norte 0 963.3 0.7 42
2017-08-05 10:00:00 27.1 4 Nordeste 11 Nordeste 0 963.3 0.7 48
2017-08-05 09:00:00 25.1 5 Norte 10 Norte 0 963.1 0.7 53
2017-08-05 08:00:00 23 0 Calma 7 Oeste 0 962.6 0.2 56
2017-08-05 07:00:00 23.4 3 Sudoeste 10 Oeste 0 962.6 0.2 54
2017-08-05 06:00:00 24.3 4 Oeste 8 Oeste 0 962.4 0.1 51
2017-08-05 05:00:00 25.8 3 Sudoeste 12 Noroeste 0 962.4 -0.1 45
2017-08-05 04:00:00 26.7 6 Oeste 10 Oeste 0 962.4 0 40
2017-08-05 03:00:00 27.8 6 Sudoeste 13 Sudoeste 0 962.3 -0.1 36
2017-08-05 02:00:00 28.5 7 Sudoeste 17 Noroeste 0 962.5 0.2 34
2017-08-05 01:00:00 30.1 8 Sudoeste 16 Sudoeste 0 962.4 0.6 32
2017-08-05 00:00:00 30.1 8 Sudoeste 15 Sudoeste 0 962.4 1.1 30
2017-08-04 23:00:00 30.4 8 Sudoeste 12 Oeste 0 962.3 1 29
2017-08-04 22:00:00 31.4 6 Oeste 10 Oeste 0 961.8 0.6 28
2017-08-04 21:00:00 34.6 6 Norte 17 Noroeste 0 961.3 0 22
2017-08-04 20:00:00 36.1 6 Norte 19 Norte 0 961.3 -0.5 20
2017-08-04 19:00:00 36.4 9 Norte 27 Sudeste 0 961.2 -1 20
2017-08-04 18:00:00 36.8 7 Nordeste 24 Norte 0 961.3 -1.6 21
2017-08-04 17:00:00 36.9 8 Nordeste 24 Norte 0 961.8 -1.6 21
2017-08-04 16:00:00 36.1 11 Norte 26 Norte 0 962.2 -1.8 21
2017-08-04 15:00:00 35.4 9 Norte 31 Norte 0 962.9 -1.4 22
2017-08-04 14:00:00 34.1 8 Norte 23 Noroeste 0 963.4 -1.1 25
2017-08-04 13:00:00 33 5 Norte 15 Norte 0 964 -0.3 29
2017-08-04 12:00:00 31 6 Norte 16 Norte 0 964.3 0.4 33
2017-08-04 11:00:00 29.8 5 Nordeste 15 Norte 0 964.5 0.7 36
2017-08-04 10:00:00 28.3 9 Norte 16 Norte 0 964.3 1 39
2017-08-04 09:00:00 25.8 11 Sudoeste 21 Sudoeste 0 963.9 1.3 47
2017-08-04 08:00:00 23.8 10 Sudoeste 16 Sudoeste 0 963.8 1.3 51
2017-08-04 07:00:00 22.4 3 Oeste 13 Oeste 0 963.3 1.1 54
2017-08-04 06:00:00 23.3 2 Sudoeste 6 Nordeste 0 962.6 0.3 51
2017-08-04 05:00:00 24.9 3 Sudoeste 15 Noroeste 0 962.5 0.6 45
2017-08-04 04:00:00 26.7 8 Noroeste 21 Oeste 0 962.2 0.1 39
2017-08-04 03:00:00 27.5 12 Noroeste 27 Noroeste 0 962.3 0.2 38
2017-08-04 02:00:00 28.3 12 Sudoeste 23 Sudoeste 0 961.9 -0.2 35
2017-08-04 01:00:00 29.8 14 Sur 29 Sur 0 962.1 0.3 32
2017-08-04 00:00:00 30.2 13 Sur 38 Sur 0 962.1 0.8 31
2017-08-03 23:00:00 30.9 14 Sur 28 Sur 0 962.1 1 29
2017-08-03 22:00:00 32.1 11 Sur 31 Sur 0 961.8 0.6 28
2017-08-03 21:00:00 34.3 7 Sudeste 16 Sur 0 961.3 -0.2 24
2017-08-03 20:00:00 36.6 6 Norte 21 Norte 0 961.1 -0.8 14
2017-08-03 19:00:00 37.2 6 Norte 20 Norte 0 961.2 -1.2 14
2017-08-03 18:00:00 37.2 10 Norte 26 Nordeste 0 961.5 -1.5 14
2017-08-03 17:00:00 36.8 11 Norte 23 Norte 0 961.9 -1.8 15
2017-08-03 16:00:00 36.6 12 Norte 38 Norte 0 962.4 -1.7 16
2017-08-03 15:00:00 35.9 6 Norte 17 Nordeste 0 963 -1.2 20
2017-08-03 14:00:00 34.6 7 Nordeste 20 Este 0 963.7 -0.7 23
2017-08-03 13:00:00 33.4 11 Norte 21 Norte 0 964.1 -0.2 26
2017-08-03 12:00:00 32 9 Nordeste 17 Norte 0 964.2 -0.3 29
2017-08-03 11:00:00 31.3 8 Nordeste 19 Norte 0 964.4 0.2 30
2017-08-03 10:00:00 29.5 11 Sudoeste 21 Sudoeste 0 964.3 0.1 32
2017-08-03 09:00:00 25.4 13 Sudoeste 24 Sudoeste 0 964.5 0.6 41
2017-08-03 08:00:00 24.5 13 Sur 25 Sudoeste 0 964.2 0.4 41
2017-08-03 07:00:00 23 10 Sudoeste 21 Sudoeste 0 964.2 0.5 45
2017-08-03 06:00:00 23.2 11 Sudoeste 18 Sudoeste 0 963.9 0.4 45
2017-08-03 05:00:00 23.5 6 Sur 13 Oeste 0 963.8 0 44
2017-08-03 04:00:00 25.1 2 Sur 21 Sur 0 963.7 -0.7 39
2017-08-03 03:00:00 26.6 8 Sur 19 Sur 0 963.5 -0.8 34
2017-08-03 02:00:00 27 7 Sudoeste 19 Sudeste 0 963.8 -0.3 32
2017-08-03 01:00:00 28.5 4 Sudoeste 33 Sudeste 0 964.4 0.7 30
2017-08-03 00:00:00 29.7 21 Sur 44 Sudeste 0 964.3 1 27
2017-08-02 23:00:00 29.6 17 Sur 35 Sur 0 964.1 1.4 30
2017-08-02 22:00:00 29.9 16 Sudeste 38 Sudeste 0 963.7 0.7 33
2017-08-02 21:00:00 30.8 18 Sudeste 36 Sudeste 0 963.3 -0.2 32
2017-08-02 20:00:00 32.2 18 Sudeste 36 Este 0 962.7 -1.9 30
2017-08-02 19:00:00 33.1 12 Sudeste 31 Sudeste 0 963 -2.1 28
2017-08-02 18:00:00 33.4 19 Este 35 Este 0 963.5 -1.7 27
2017-08-02 17:00:00 30.8 7 Este 19 Este 0 964.6 -1.4 28
2017-08-02 16:00:00 31.9 5 Sudeste 22 Sudeste 0 965.1 -1.1 24
2017-08-02 15:00:00 32.2 10 Sudoeste 32 Sudoeste 0 965.2 -1 25
2017-08-02 14:00:00 29.3 18 Sudoeste 51 Oeste 0 966 0.5 30
2017-08-02 13:00:00 31.4 23 Oeste 54 Oeste 0 966.2 1 22
2017-08-02 12:00:00 29.7 10 Norte 22 Norte 0 966.2 0.9 42
2017-08-02 11:00:00 27.3 5 Noroeste 13 Este 0 965.5 0.3 54
2017-08-02 10:00:00 24.7 3 Sudeste 12 Sudoeste 0 965.2 0.1 64
2017-08-02 09:00:00 23.2 2 Nordeste 16 Este 0 965.3 1.1 71
2017-08-02 08:00:00 22.1 4 Sudeste 7 Sur 0 965.2 1 72
2017-08-02 07:00:00 22.2 6 Oeste 17 Oeste 0 965.1 0.9 77
2017-08-02 06:00:00 23 4 Noroeste 16 Oeste 0 964.2 0.5 71
2017-08-02 05:00:00 23.6 6 Oeste 11 Oeste 0 964.2 0.6 55
2017-08-02 04:00:00 25.5 4 Oeste 33 Sudeste 0 964.2 0.5 48
2017-08-02 03:00:00 27.7 18 Sur 48 Sur 0 963.7 -0.1 38
2017-08-02 02:00:00 27.4 23 Sur 51 Sur 0 963.6 0.2 41
2017-08-02 01:00:00 27.4 26 Sur 58 Sur 0 963.7 1.5 41
2017-08-02 00:00:00 27.5 28 Sur 52 Sudeste 0 963.8 2.8 43
2017-08-01 23:00:00 28.4 19 Sur 48 Sur 0 963.4 3.5 38
2017-08-01 22:00:00 28.7 12 Sur 27 Sudeste 0 962.2 2.5 41
2017-08-01 21:00:00 30.3 7 Sudeste 21 Norte 0 961 1 34
2017-08-01 20:00:00 30.9 12 Norte 19 Norte 0 959.9 -1.1 32
2017-08-01 19:00:00 30.8 12 Norte 22 Norte 0 959.7 -1.7 33
2017-08-01 18:00:00 30 8 Norte 16 Norte 0 960 -1.9 36
2017-08-01 17:00:00 27.4 5 Nordeste 16 Norte 0 961 -0.3 45
2017-08-01 16:00:00 26.7 5 Norte 15 Norte 0 961.4 -0.2 46
2017-08-01 15:00:00 25.5 4 Nordeste 14 Norte 0 961.9 0.4 50
2017-08-01 14:00:00 25.4 3 Noroeste 18 Noroeste 0 961.3 0.1 48
2017-08-01 13:00:00 23.6 7 Norte 15 Norte 0 961.6 0.7 53
2017-08-01 12:00:00 24.1 4 Nordeste 18 Norte 0 961.5 0.9 52
2017-08-01 11:00:00 23.4 8 Norte 17 Norte 0 961.2 1.3 53
2017-08-01 10:00:00 23.3 2 Norte 11 Noroeste 0 960.9 1.4 55
2017-08-01 09:00:00 21.9 5 Noroeste 15 Noroeste 0 960.6 1.9 59
2017-08-01 08:00:00 20 2 Sudoeste 7 Noroeste 0 959.9 1.4 70
2017-08-01 07:00:00 19.8 4 Este 11 Este 0 959.5 1.1 69
2017-08-01 06:00:00 21 4 Norte 7 Noroeste 0 958.7 0.1 63
2017-08-01 05:00:00 21.7 3 Norte 15 Noroeste 0 958.5 0.4 60
2017-08-01 04:00:00 22.5 7 Noroeste 14 Noroeste 0 958.4 1.2 58
2017-08-01 03:00:00 23.6 4 Noroeste 30 Noroeste 0 958.6 2.9 55
2017-08-01 02:00:00 25.3 14 Noroeste 34 Noroeste 0 958.1 2.8 51
2017-08-01 01:00:00 28.9 13 Oeste 69 Sur 0 957.2 2.8 37
2017-08-01 00:00:00 29.2 24 Sur 54 Sudeste 0 955.7 2 37
2017-07-31 23:00:00 29.2 25 Sur 61 Sudeste 0 955.3 2.1 42
2017-07-31 22:00:00 29.7 34 Sur 65 Sur 0 954.4 1.1 43
2017-07-31 21:00:00 30.8 26 Sur 56 Sudeste 0 953.7 0.2 40
2017-07-31 20:00:00 33.2 27 Sudeste 58 Sudeste 0 953.2 -1 32
2017-07-31 19:00:00 34.6 29 Sudeste 52 Sur 0 953.3 -2.1 29
2017-07-31 18:00:00 35.9 21 Sur 50 Sur 0 953.5 -2.6 26
2017-07-31 17:00:00 36.4 23 Sudeste 42 Sur 0 954.2 -2.8 26
2017-07-31 16:00:00 35.3 5 Este 18 Norte 0 955.4 -2.2 29
2017-07-31 15:00:00 32.4 8 Norte 23 Norte 0 956.1 -2.2 34
2017-07-31 14:00:00 29.9 10 Norte 22 Nordeste 0 957 -1.8 37
2017-07-31 13:00:00 28.4 7 Nordeste 21 Nordeste 0 957.6 -1.3 42
2017-07-31 12:00:00 25.9 5 Norte 13 Nordeste 0 958.3 -0.6 47
2017-07-31 11:00:00 24.3 5 Norte 11 Norte 0 958.8 0.2 50
2017-07-31 10:00:00 22.3 3 Norte 12 Norte 0 958.9 0.4 57
2017-07-31 09:00:00 20.3 6 Norte 11 Norte 0 958.9 0.5 65
2017-07-31 08:00:00 19.1 2 Este 8 Este 0 958.6 0 74
2017-07-31 07:00:00 19.1 2 Este 6 Nordeste 0 958.5 -0.1 72
2017-07-31 06:00:00 19.7 2 Oeste 7 Oeste 0 958.4 -0.6 69
2017-07-31 05:00:00 21 0 Calma 7 Oeste 0 958.6 0.1 63
2017-07-31 04:00:00 22.4 0 Calma 15 Norte 0 958.6 1.7 58
2017-07-31 03:00:00 23.8 6 Noroeste 24 Noroeste 0 959 2.1 54
2017-07-31 02:00:00 25.2 12 Noroeste 31 Noroeste 0 958.5 1.7 66
2017-07-31 01:00:00 30.5 15 Sur 37 Sur 0 956.9 0.4 26
2017-07-31 00:00:00 30.6 20 Sur 45 Sur 0 956.9 0.9 27
2017-07-30 23:00:00 30.3 21 Sur 45 Sudeste 0 956.8 0.8 33
2017-07-30 22:00:00 30.8 22 Sur 47 Sudeste 0 956.5 0.1 35
2017-07-30 21:00:00 31.6 30 Sudeste 53 Sudeste 0 956 -0.9 35
2017-07-30 20:00:00 32.5 24 Sudeste 50 Sudeste 0 956 -1.1 34
2017-07-30 19:00:00 34.3 19 Sudeste 53 Sudeste 0 956.4 -1.2 30
2017-07-30 18:00:00 34.8 22 Sudeste 37 Sudeste 0 956.9 -1.3 30
2017-07-30 17:00:00 38.1 15 Este 28 Este 0 957.1 -2 19
2017-07-30 16:00:00 37 6 Nordeste 22 Este 0 957.6 -2.6 16
2017-07-30 15:00:00 37 9 Nordeste 24 Este 0 958.2 -2.3 16
2017-07-30 14:00:00 34.6 7 Nordeste 23 Este 0 959.1 -1.7 19
2017-07-30 13:00:00 32.9 7 Norte 16 Norte 0 960.2 -0.5 28
2017-07-30 12:00:00 31.3 5 Norte 14 Norte 0 960.5 -0.1 34
2017-07-30 11:00:00 29.5 3 Norte 12 Norte 0 960.8 0.8 40
2017-07-30 10:00:00 27.3 3 Norte 12 Norte 0 960.7 0.9 52
2017-07-30 09:00:00 24.4 6 Noroeste 12 Noroeste 0 960.6 0.6 58
2017-07-30 08:00:00 23.3 7 Sudoeste 15 Sudoeste 0 960 0 44
2017-07-30 07:00:00 21.7 4 Oeste 10 Sudoeste 0 959.8 -0.2 53
2017-07-30 06:00:00 22.4 0 Calma 8 Este 0 960 0.1 55
2017-07-30 05:00:00 24 4 Sudoeste 14 Oeste 0 960 -0.3 43
2017-07-30 04:00:00 25.8 7 Noroeste 22 Sudoeste 0 960 -0.6 43
2017-07-30 03:00:00 25.8 12 Sudoeste 19 Sudoeste 0 959.9 -0.6 46
2017-07-30 02:00:00 26.2 10 Sudoeste 16 Sudoeste 0 960.3 -0.2 50
2017-07-30 01:00:00 26.9 6 Oeste 18 Sudoeste 0 960.6 0.3 52
2017-07-30 00:00:00 27.8 4 Sudeste 12 Sudeste 0 960.5 0.5 50
2017-07-29 23:00:00 28.4 10 Sudeste 23 Sudeste 0 960.5 0.7 50
2017-07-29 22:00:00 29.1 5 Sudeste 28 Sudeste 0 960.3 0.5 50
2017-07-29 21:00:00 30.2 17 Sur 35 Sudeste 0 960 0.2 48
2017-07-29 20:00:00 32.8 20 Sudeste 34 Sudeste 0 959.8 -0.6 40
2017-07-29 19:00:00 34.5 17 Sudeste 36 Sudeste 0 959.8 -1 35
2017-07-29 18:00:00 35.8 18 Norte 31 Norte 0 959.8 -1.6 33
2017-07-29 17:00:00 35.5 13 Norte 28 Norte 0 960.4 -1.8 28
2017-07-29 16:00:00 35 9 Norte 30 Norte 0 960.8 -1.9 26
2017-07-29 15:00:00 33.9 7 Nordeste 27 Norte 0 961.4 -2 28
2017-07-29 14:00:00 32.2 9 Nordeste 18 Norte 0 962.2 -1.4 32
2017-07-29 13:00:00 30.7 5 Nordeste 15 Este 0 962.7 -0.9 36
2017-07-29 12:00:00 28.5 5 Norte 16 Norte 0 963.4 0.2 36
2017-07-29 11:00:00 27 7 Norte 15 Noroeste 0 963.6 0.7 40
2017-07-29 10:00:00 25.4 3 Noroeste 7 Noroeste 0 963.6 1 54
2017-07-29 09:00:00 22.8 2 Nordeste 8 Oeste 0 963.2 0.6 62
2017-07-29 08:00:00 21.5 3 Sudoeste 12 Sudoeste 0 962.9 0.3 65
2017-07-29 07:00:00 21 8 Sudoeste 12 Sudoeste 0 962.6 0 70
2017-07-29 06:00:00 21.8 6 Sudoeste 14 Oeste 0 962.6 -0.2 59
2017-07-29 05:00:00 22.9 6 Oeste 16 Oeste 0 962.6 0.3 68
2017-07-29 04:00:00 23.2 8 Sudoeste 20 Oeste 0 962.6 0.3 73
2017-07-29 03:00:00 24.8 10 Noroeste 19 Oeste 0 962.8 0.7 59
2017-07-29 02:00:00 26.4 9 Sur 23 Sur 0 962.3 0.1 57
2017-07-29 01:00:00 27.1 7 Sur 25 Sur 0 962.3 0.5 56
2017-07-29 00:00:00 27.9 11 Sur 28 Sudoeste 0 962.1 0.7 54
2017-07-28 23:00:00 28.5 13 Sur 28 Sur 0 962.2 1.3 51
2017-07-28 22:00:00 29.4 10 Sur 23 Sudeste 0 961.8 0.7 49
2017-07-28 21:00:00 31.4 10 Este 25 Nordeste 0 961.4 -0.1 43
2017-07-28 20:00:00 34.3 7 Nordeste 18 Norte 0 960.9 -0.9 31
2017-07-28 19:00:00 34.5 5 Nordeste 17 Norte 0 961.1 -1.4 22
2017-07-28 18:00:00 34.6 5 Norte 18 Nordeste 0 961.5 -1.5 22
2017-07-28 17:00:00 34 6 Nordeste 18 Nordeste 0 961.8 -1.9 24
2017-07-28 16:00:00 32.9 10 Norte 19 Nordeste 0 962.5 -1.5 26
2017-07-28 15:00:00 31.5 6 Nordeste 20 Norte 0 963 -1.1 29
2017-07-28 14:00:00 30 8 Norte 19 Norte 0 963.7 -0.2 32
2017-07-28 13:00:00 28.3 9 Norte 19 Nordeste 0 964 0.2 38
2017-07-28 12:00:00 27.3 8 Norte 21 Norte 0 964.1 0.5 41
2017-07-28 11:00:00 26.4 4 Norte 13 Norte 0 963.9 0.9 43
2017-07-28 10:00:00 25.5 3 Este 9 Este 0 963.8 1 46
2017-07-28 09:00:00 22.5 3 Nordeste 6 Sudeste 0 963.6 1.2 55
2017-07-28 08:00:00 21 3 Sur 8 Este 0 963 0.9 59
2017-07-28 07:00:00 20 3 Oeste 9 Oeste 0 962.8 1.2 63
2017-07-28 06:00:00 21.5 0 Calma 7 Nordeste 0 962.4 1 56
2017-07-28 05:00:00 22.7 4 Norte 14 Sudoeste 0 962.1 0.9 50
2017-07-28 04:00:00 23.5 6 Oeste 13 Sudoeste 0 961.6 0.9 48
2017-07-28 03:00:00 24.1 4 Oeste 10 Oeste 0 961.4 1.1 48
2017-07-28 02:00:00 26.4 6 Oeste 19 Sudoeste 0 961.2 0.9 44
2017-07-28 01:00:00 28.5 11 Sudoeste 37 Sur 0 960.7 1.1 38
2017-07-28 00:00:00 28.9 16 Sur 36 Sudeste 0 960.3 1.1 41
2017-07-27 23:00:00 29.8 14 Sur 32 Sur 0 960.3 1.5 35
2017-07-27 22:00:00 31.2 20 Sur 42 Sudeste 0 959.6 0.6 30
2017-07-27 21:00:00 33.3 8 Sudeste 15 Sudeste 0 959.2 -0.1 28
2017-07-27 20:00:00 35.6 4 Nordeste 15 Nordeste 0 958.8 -1 15
2017-07-27 19:00:00 35.6 5 Nordeste 19 Nordeste 0 959 -1.2 15
2017-07-27 18:00:00 35.5 9 Norte 23 Norte 0 959.3 -1.3 15
2017-07-27 17:00:00 35 11 Norte 26 Norte 0 959.8 -1.5 15
2017-07-27 16:00:00 34.9 8 Norte 23 Norte 0 960.2 -1.7 15
2017-07-27 15:00:00 33.4 11 Norte 21 Norte 0 960.6 -1.8 16
2017-07-27 14:00:00 32.4 9 Norte 17 Este 0 961.3 -1.5 18
2017-07-27 13:00:00 30.9 5 Nordeste 15 Norte 0 961.9 -1.2 21
2017-07-27 12:00:00 29.2 4 Nordeste 10 Nordeste 0 962.4 -0.7 21
2017-07-27 11:00:00 27.8 3 Noroeste 8 Noroeste 0 962.8 0.2 21
2017-07-27 10:00:00 25.7 3 Norte 12 Sur 0 963.1 0.8 27
2017-07-27 09:00:00 22.5 9 Sudoeste 17 Sudoeste 0 963.1 0.8 41
2017-07-27 08:00:00 20.6 10 Sudoeste 19 Sudoeste 0 962.6 0.3 44
2017-07-27 07:00:00 20.1 14 Sudoeste 21 Sudoeste 0 962.3 -0.1 41
2017-07-27 06:00:00 21.4 8 Sudoeste 24 Sudoeste 0 962.3 0 34
2017-07-27 05:00:00 21.8 9 Sudoeste 21 Sudoeste 0 962.3 0.1 36
2017-07-27 04:00:00 21.6 14 Sudoeste 23 Sudoeste 0 962.4 -0.1 44
2017-07-27 03:00:00 23.2 14 Sudoeste 26 Sudoeste 0 962.3 -0.2 40
2017-07-27 02:00:00 23.6 13 Sudoeste 24 Sudoeste 0 962.2 -0.3 41
2017-07-27 01:00:00 23.6 13 Sudoeste 21 Sudoeste 0 962.5 0.6 40
2017-07-27 00:00:00 24.1 10 Sudoeste 21 Oeste 0 962.5 1.3 40
2017-07-26 23:00:00 25.2 9 Oeste 15 Noroeste 0 962.5 1.6 34
2017-07-26 22:00:00 26.7 7 Oeste 21 Noroeste 0 961.9 1.2 32
2017-07-26 21:00:00 28.8 12 Noroeste 30 Noroeste 0 961.2 0.4 29
2017-07-26 20:00:00 30.1 17 Noroeste 33 Noroeste 0 960.9 -0.3 25
2017-07-26 19:00:00 30.7 16 Noroeste 39 Noroeste 0 960.7 -0.9 24
2017-07-26 18:00:00 30.9 18 Noroeste 39 Oeste 0 960.8 -1.1 22
2017-07-26 17:00:00 30.4 18 Noroeste 37 Noroeste 0 961.2 -1.3 23
2017-07-26 16:00:00 29.1 17 Noroeste 36 Noroeste 0 961.6 -1.3 25
2017-07-26 15:00:00 28.3 18 Noroeste 41 Noroeste 0 961.9 -1.4 27
2017-07-26 14:00:00 27 17 Noroeste 37 Noroeste 0 962.5 -1 27
2017-07-26 13:00:00 25.2 13 Norte 37 Noroeste 0 962.9 -0.8 28
2017-07-26 12:00:00 23.5 17 Noroeste 34 Oeste 0 963.3 -0.2 32
2017-07-26 11:00:00 21.8 16 Noroeste 36 Noroeste 0 963.5 0.1 38
2017-07-26 10:00:00 20 12 Noroeste 26 Oeste 0 963.7 0.5 44
2017-07-26 09:00:00 17.4 7 Oeste 17 Oeste 0 963.5 0.4 55
2017-07-26 08:00:00 15.4 6 Sudoeste 10 Sudoeste 0 963.4 0.3 63
2017-07-26 07:00:00 15.4 4 Sur 24 Oeste 0 963.2 0 61
2017-07-26 06:00:00 15.6 7 Oeste 27 Oeste 0 963.1 -0.2 61
2017-07-26 05:00:00 16 13 Oeste 27 Oeste 0 963.1 -0.3 59
2017-07-26 04:00:00 16.3 13 Oeste 34 Oeste 0 963.2 -1 59
2017-07-26 03:00:00 16.8 18 Oeste 32 Oeste 0 963.3 -0.7 57
2017-07-26 02:00:00 17.1 15 Oeste 41 Oeste 0 963.4 -0.8 57
2017-07-26 01:00:00 17.6 11 Oeste 35 Noroeste 0 964.2 1.2 56
2017-07-26 00:00:00 18.6 18 Oeste 36 Oeste 0 964 1.6 52
2017-07-25 23:00:00 19.6 10 Oeste 35 Oeste 0 964.2 2.2 48
2017-07-25 22:00:00 20.4 7 Oeste 37 Noroeste 0 963 1.1 45
2017-07-25 21:00:00 21.9 18 Noroeste 43 Noroeste 0 962.4 0.2 40
2017-07-25 20:00:00 24.4 21 Noroeste 42 Noroeste 0 962 -0.5 33
2017-07-25 19:00:00 24.4 25 Noroeste 45 Noroeste 0 961.9 -1 32
2017-07-25 18:00:00 25.3 23 Noroeste 47 Noroeste 0 962.2 -1 32
2017-07-25 17:00:00 25.7 24 Noroeste 45 Noroeste 0 962.5 -1.5 31
2017-07-25 16:00:00 25.8 23 Noroeste 42 Noroeste 0 962.9 -1.6 30
2017-07-25 15:00:00 25.2 19 Noroeste 47 Noroeste 0 963.2 -1.5 32
2017-07-25 14:00:00 23.9 24 Noroeste 46 Noroeste 0 964 -1.1 34
2017-07-25 13:00:00 22.9 22 Noroeste 43 Noroeste 0 964.5 -0.8 38
2017-07-25 12:00:00 21.6 24 Noroeste 38 Oeste 0 964.7 -0.7 41
2017-07-25 11:00:00 19.5 20 Noroeste 37 Oeste 0 965.1 -0.1 48
2017-07-25 10:00:00 19.1 23 Noroeste 42 Noroeste 0 965.3 0.2 51
2017-07-25 09:00:00 17.6 20 Noroeste 44 Oeste 0 965.4 0.3 56
2017-07-25 08:00:00 16.9 17 Oeste 33 Oeste 0 965.2 0.2 60
2017-07-25 07:00:00 16.2 13 Oeste 43 Oeste 0 965.1 -0.3 63
2017-07-25 06:00:00 16.4 12 Oeste 36 Oeste 0 965.1 -1.2 62
2017-07-25 05:00:00 16.8 16 Oeste 48 Oeste 0 965 -1.7 60
2017-07-25 04:00:00 17.4 23 Oeste 44 Oeste 0 965.4 -1.5 59
2017-07-25 03:00:00 17.6 18 Oeste 44 Oeste 0 966.3 -0.4 62
2017-07-25 02:00:00 18.1 14 Oeste 35 Oeste 0 966.7 0.2 61
2017-07-25 01:00:00 18.8 17 Oeste 37 Sudoeste 0 966.9 1.4 60
2017-07-25 00:00:00 19.6 21 Oeste 40 Oeste 0 966.7 1.6 57
2017-07-24 23:00:00 20.6 17 Oeste 43 Noroeste 0 966.5 2.1 53
2017-07-24 22:00:00 21.8 21 Noroeste 48 Noroeste 0 965.5 1.5 47
2017-07-24 21:00:00 23.8 23 Noroeste 51 Noroeste 0 965.1 1.2 40
2017-07-24 20:00:00 25.7 29 Noroeste 57 Noroeste 0 964.4 0.1 34
2017-07-24 19:00:00 27.1 30 Noroeste 55 Noroeste 0 964 -0.6 30
2017-07-24 18:00:00 27.8 28 Noroeste 51 Oeste 0 963.9 -1 28
2017-07-24 17:00:00 27.9 26 Noroeste 54 Noroeste 0 964.3 -1.1 28
2017-07-24 16:00:00 28 22 Noroeste 48 Noroeste 0 964.6 -1 30
2017-07-24 15:00:00 27.2 27 Noroeste 51 Noroeste 0 964.9 -1 33
2017-07-24 14:00:00 26.3 24 Noroeste 53 Noroeste 0 965.4 -0.7 39
2017-07-24 13:00:00 25.5 25 Noroeste 43 Noroeste 0 965.6 -0.7 44
2017-07-24 12:00:00 24.4 25 Noroeste 45 Oeste 0 965.9 -0.1 48
2017-07-24 11:00:00 23 23 Oeste 41 Noroeste 0 966.1 0.2 53
2017-07-24 10:00:00 21.9 21 Noroeste 49 Noroeste 0 966.3 0.4 57
2017-07-24 09:00:00 20.4 12 Oeste 27 Oeste 0 966 0.2 63
2017-07-24 08:00:00 18.8 9 Oeste 27 Sudoeste 0 965.9 0.3 71
2017-07-24 07:00:00 18 14 Sudoeste 31 Sudoeste 0 965.9 0.3 72
2017-07-24 06:00:00 18.2 14 Sudoeste 26 Sudoeste 0 965.8 0 68
2017-07-24 05:00:00 18.4 12 Oeste 28 Sudoeste 0 965.6 -0.2 65
2017-07-24 04:00:00 18.9 13 Sudoeste 27 Oeste 0 965.6 -0.3 61
2017-07-24 03:00:00 19.9 13 Sudoeste 28 Sudoeste 0 965.8 0.5 55
2017-07-24 02:00:00 20.6 12 Oeste 20 Oeste 0 965.8 1.1 54
2017-07-24 01:00:00 21.4 10 Oeste 19 Noroeste 0 965.9 2 51
2017-07-24 00:00:00 22.1 8 Oeste 19 Oeste 0 965.3 2.1 58
2017-07-23 23:00:00 22.3 5 Oeste 14 Sudoeste 0 964.7 1.9 67
2017-07-23 22:00:00 22.5 2 Sudoeste 7 Sudoeste 0 963.9 0.9 72
2017-07-23 21:00:00 24.4 0 Calma 8 Este 0 963.2 -0.8 59
2017-07-23 20:00:00 24.9 2 Sur 13 Sudoeste 0 962.8 -0.7 50
2017-07-23 19:00:00 24 5 Sur 24 Sur 0 963 -2.6 55
2017-07-23 18:00:00 20.4 19 Sur 37 Sur 0 964 0 68
2017-07-23 17:00:00 17.3 27 Sudeste 50 Sur 3.6 963.5 -1.7 86
2017-07-23 16:00:00 19.9 27 Noroeste 61 Oeste 20 965.6 -0.5 90
2017-07-23 15:00:00 26.7 16 Norte 26 Norte 0 964 -2.4 45
2017-07-23 14:00:00 27.2 8 Nordeste 23 Este 0 965.2 -1.4 43
2017-07-23 13:00:00 26.3 6 Este 17 Nordeste 0 966.1 -0.7 44
2017-07-23 12:00:00 24.4 2 Sudeste 13 Norte 0 966.4 0 49
2017-07-23 11:00:00 22.4 5 Nordeste 14 Este 0 966.6 0.4 58
2017-07-23 10:00:00 21.3 5 Norte 17 Noroeste 0 966.8 0.9 62
2017-07-23 09:00:00 20.1 6 Noroeste 13 Noroeste 0 966.4 0.9 68
2017-07-23 08:00:00 19.2 3 Oeste 9 Oeste 0 966.2 1.1 73
2017-07-23 07:00:00 20.2 6 Oeste 14 Oeste 0 965.9 1.3 69
2017-07-23 06:00:00 20.4 9 Oeste 17 Oeste 0 965.5 1.2 68
2017-07-23 05:00:00 20.5 9 Oeste 14 Oeste 0 965.1 1.3 69
2017-07-23 04:00:00 21.2 5 Oeste 25 Noroeste 0 964.6 2.1 67
2017-07-23 03:00:00 22 12 Noroeste 22 Noroeste 0 964.3 1.9 63
2017-07-23 02:00:00 23.4 14 Noroeste 26 Oeste 0 963.8 1.8 83
2017-07-23 01:00:00 24.3 8 Sur 19 Sudeste 0 962.5 1.2 69
2017-07-23 00:00:00 24.7 9 Sur 22 Sur 0 962.4 2.1 67
2017-07-22 23:00:00 25.4 3 Sudoeste 31 Sur 0 962 2.4 63
2017-07-22 22:00:00 26.3 6 Sudeste 26 Sudeste 0 961.3 2.1 61
2017-07-22 21:00:00 27.7 15 Sudeste 28 Sudeste 0 960.3 1 55
2017-07-22 20:00:00 29.2 12 Sudeste 20 Sudeste 0 959.6 0.2 50
2017-07-22 19:00:00 31 15 Este 24 Este 0 959.2 -0.9 44
2017-07-22 18:00:00 30.3 6 Nordeste 27 Nordeste 0 959.3 -0.5 51
2017-07-22 17:00:00 28.8 7 Nordeste 30 Sudoeste 2.4 959.4 -1.2 58
2017-07-22 16:00:00 27.7 7 Este 26 Este 0.8 960.1 -1.2 63
2017-07-22 15:00:00 32.2 6 Oeste 26 Norte 0 959.8 -1.9 35
2017-07-22 14:00:00 29.7 10 Norte 26 Norte 0 960.6 -1 43
2017-07-22 13:00:00 27.4 9 Norte 19 Norte 0 961.3 -0.3 48
2017-07-22 12:00:00 25.6 4 Norte 12 Norte 0 961.7 0.3 59
2017-07-22 11:00:00 23.5 5 Norte 16 Nordeste 0 961.6 0.6 66
2017-07-22 10:00:00 23.8 3 Norte 10 Norte 0 961.6 0.9 68
2017-07-22 09:00:00 21.4 3 Oeste 10 Sudoeste 0 961.4 0.8 79
2017-07-22 08:00:00 19.3 0 Calma 8 Sur 0 961 0.9 86
2017-07-22 07:00:00 19 3 Sur 8 Oeste 0 960.7 1.1 84
2017-07-22 06:00:00 19.1 6 Sudoeste 12 Oeste 0 960.6 1.5 85
2017-07-22 05:00:00 19.8 5 Sudoeste 21 Oeste 0 960.1 1.4 83
2017-07-22 04:00:00 20.5 4 Oeste 15 Oeste 0 959.6 0.6 84
2017-07-22 03:00:00 21.7 9 Oeste 20 Sur 0 959.1 0.4 78
2017-07-22 02:00:00 22.5 6 Sur 24 Sur 0 958.7 0.2 75
2017-07-22 01:00:00 22.9 5 Sur 22 Sudoeste 0 959 1 74
2017-07-22 00:00:00 23 9 Sudeste 26 Sudeste 0 958.7 1.2 73